Time;durP1;ratioP1;P1;durP2;ratioP2;P2;SDS_P1;SDS_P2;PMS_P1;PMS_P2;Temp;Humidity;BMP_temperature;BMP_pressure;BME280_temperature;BME280_humidity;BME280_pressure;Samples;Min_cycle;Max_cycle;Signal;HPM_P1;HPM_P2
2024/01/23 00:01:33;;;;;;;0.03;0.03;;;0.60;99.90;;;;;;5015535;28;20034;-62
2024/01/23 00:04:00;;;;;;;0.45;0.45;;;0.50;99.90;;;;;;5002287;28;20041;-61
2024/01/23 00:06:26;;;;;;;0.30;0.30;;;0.40;99.90;;;;;;5001659;28;20014;-62
2024/01/23 00:08:53;;;;;;;0.00;0.00;;;0.40;99.90;;;;;;4998864;28;20025;-62
2024/01/23 00:11:19;;;;;;;0.35;0.35;;;0.40;99.90;;;;;;4999364;28;20048;-61
2024/01/23 00:13:48;;;;;;;0.40;0.40;;;0.40;99.90;;;;;;5000817;28;20096;-63
2024/01/23 00:16:14;;;;;;;0.00;0.00;;;0.40;99.90;;;;;;5002945;28;20108;-64
2024/01/23 00:18:40;;;;;;;0.00;0.00;;;0.40;99.90;;;;;;5000415;28;20180;-64
2024/01/23 00:21:06;;;;;;;0.00;0.00;;;0.40;99.90;;;;;;5003181;28;20506;-63
2024/01/23 00:23:31;;;;;;;0.00;0.00;;;0.30;99.90;;;;;;4994659;28;20025;-63
2024/01/23 00:25:57;;;;;;;0.00;0.00;;;0.30;99.90;;;;;;5001996;28;20111;-64
2024/01/23 00:28:23;;;;;;;0.20;0.20;;;0.30;99.90;;;;;;4994730;28;20489;-64
2024/01/23 00:30:49;;;;;;;0.00;0.00;;;0.30;99.90;;;;;;5003104;28;20053;-64
2024/01/23 00:33:14;;;;;;;0.00;0.00;;;0.30;99.90;;;;;;4995248;28;20029;-64
2024/01/23 00:35:40;;;;;;;0.30;0.30;;;0.30;99.90;;;;;;4999515;28;20409;-64
2024/01/23 00:38:07;;;;;;;1.53;1.43;;;0.40;99.90;;;;;;4999374;28;20118;-64
2024/01/23 00:40:33;;;;;;;0.00;0.00;;;0.40;99.90;;;;;;4995683;28;20026;-64
2024/01/23 00:42:59;;;;;;;0.00;0.00;;;0.40;99.90;;;;;;4995352;28;20096;-64
2024/01/23 00:45:25;;;;;;;0.10;0.10;;;0.50;99.90;;;;;;4996078;28;20576;-64
2024/01/23 00:47:50;;;;;;;0.10;0.10;;;0.50;99.90;;;;;;4995487;28;20096;-64
2024/01/23 00:50:18;;;;;;;0.00;0.00;;;0.60;99.90;;;;;;4996534;28;20014;-64
2024/01/23 00:52:43;;;;;;;0.10;0.10;;;0.40;99.90;;;;;;4998315;28;20030;-64
2024/01/23 00:55:10;;;;;;;0.00;0.00;;;0.40;99.90;;;;;;4993471;28;20532;-64
2024/01/23 00:57:35;;;;;;;0.00;0.00;;;0.50;99.90;;;;;;4998947;28;20717;-63
2024/01/23 01:00:05;;;;;;;0.00;0.00;;;0.50;99.90;;;;;;4997922;28;20038;-63
2024/01/23 01:02:32;;;;;;;0.32;0.32;;;0.50;99.90;;;;;;4995881;28;20117;-64
2024/01/23 01:04:58;;;;;;;0.30;0.30;;;0.50;99.90;;;;;;4999744;28;20022;-63
2024/01/23 01:07:23;;;;;;;0.00;0.00;;;0.60;99.90;;;;;;4998612;28;20141;-64
2024/01/23 01:09:49;;;;;;;0.00;0.00;;;0.60;99.90;;;;;;4997177;28;20560;-64
2024/01/23 01:12:15;;;;;;;0.00;0.00;;;0.60;99.90;;;;;;4996956;28;20034;-64
2024/01/23 01:14:40;;;;;;;0.20;0.20;;;0.60;99.90;;;;;;4997919;28;20109;-64
2024/01/23 01:17:06;;;;;;;0.00;0.00;;;0.60;99.90;;;;;;4997236;28;20032;-64
2024/01/23 01:19:32;;;;;;;0.43;0.43;;;0.50;99.90;;;;;;5018969;28;20378;-64
2024/01/23 01:21:58;;;;;;;0.00;0.00;;;0.50;99.90;;;;;;5016995;28;20099;-64
2024/01/23 01:24:23;;;;;;;0.00;0.00;;;0.50;99.90;;;;;;5025856;28;20436;-64
2024/01/23 01:26:49;;;;;;;0.00;0.00;;;0.50;99.90;;;;;;4999575;28;20121;-64
2024/01/23 01:29:15;;;;;;;0.63;0.40;;;0.40;99.90;;;;;;4995535;28;20223;-64
2024/01/23 01:31:40;;;;;;;0.00;0.00;;;0.40;99.90;;;;;;5020694;28;20028;-64
2024/01/23 01:34:06;;;;;;;0.27;0.27;;;0.40;99.90;;;;;;4997964;28;20026;-64
2024/01/23 01:36:32;;;;;;;0.00;0.00;;;0.40;99.90;;;;;;5019939;28;20033;-64
2024/01/23 01:39:00;;;;;;;0.00;0.00;;;0.40;99.90;;;;;;4996543;28;20025;-64
2024/01/23 01:41:26;;;;;;;0.00;0.00;;;0.40;99.90;;;;;;4998627;28;20018;-64
2024/01/23 01:43:51;;;;;;;0.57;0.57;;;0.40;99.90;;;;;;4997586;28;20022;-64
2024/01/23 01:46:25;;;;;;;0.00;0.00;;;0.40;99.90;;;;;;4999130;28;20112;-64
2024/01/23 01:48:52;;;;;;;0.00;0.00;;;0.40;99.90;;;;;;4996277;28;20014;-64
2024/01/23 01:51:23;;;;;;;;;;;0.30;99.90;;;;;;4997543;28;20080;-64
2024/01/23 01:53:49;;;;;;;0.00;0.00;;;0.30;99.90;;;;;;4997535;28;19905;-64
2024/01/23 01:56:20;;;;;;;;;;;0.30;99.90;;;;;;4999007;28;20068;-64
2024/01/23 01:58:47;;;;;;;0.05;0.05;;;0.30;99.90;;;;;;4994622;28;19913;-64
2024/01/23 02:01:13;;;;;;;0.05;0.05;;;0.30;99.90;;;;;;4994261;28;20033;-64
2024/01/23 02:03:39;;;;;;;0.00;0.00;;;0.20;99.90;;;;;;4997175;28;20033;-64
2024/01/23 02:06:06;;;;;;;0.20;0.20;;;0.20;99.90;;;;;;4999172;28;20033;-64
2024/01/23 02:08:32;;;;;;;0.00;0.00;;;0.20;99.90;;;;;;4997270;28;20034;-64
2024/01/23 02:10:58;;;;;;;0.00;0.00;;;0.20;99.90;;;;;;4992768;28;20025;-64
2024/01/23 02:13:24;;;;;;;0.00;0.00;;;0.30;99.90;;;;;;5001876;28;20022;-64
2024/01/23 02:15:50;;;;;;;0.00;0.00;;;0.30;99.90;;;;;;4996759;28;20030;-64
2024/01/23 02:18:15;;;;;;;0.07;0.07;;;0.30;99.90;;;;;;4994820;28;20030;-64
2024/01/23 02:20:41;;;;;;;0.00;0.00;;;0.30;99.90;;;;;;4997881;28;20559;-64
2024/01/23 02:23:14;;;;;;;0.00;0.00;;;0.40;99.90;;;;;;4999154;28;20433;-64
2024/01/23 02:25:40;;;;;;;0.00;0.00;;;0.40;99.90;;;;;;4993985;28;20029;-64
2024/01/23 02:28:07;;;;;;;0.00;0.00;;;0.40;99.90;;;;;;4996692;28;20022;-64
2024/01/23 02:30:34;;;;;;;0.22;0.22;;;0.50;99.90;;;;;;4993622;28;20084;-64
2024/01/23 02:33:03;;;;;;;0.00;0.00;;;0.40;99.90;;;;;;4996551;28;20014;-64
2024/01/23 02:35:29;;;;;;;0.00;0.00;;;0.30;99.90;;;;;;4994577;28;21106;-64
2024/01/23 02:37:55;;;;;;;0.00;0.00;;;0.30;99.90;;;;;;4995749;28;20120;-64
2024/01/23 02:40:20;;;;;;;0.00;0.00;;;0.20;99.90;;;;;;4996299;28;20132;-64
2024/01/23 02:42:46;;;;;;;0.00;0.00;;;0.20;99.90;;;;;;4996474;28;20029;-64
2024/01/23 02:45:12;;;;;;;0.23;0.23;;;0.20;99.90;;;;;;4992992;28;20026;-64
2024/01/23 02:47:37;;;;;;;0.00;0.00;;;0.20;99.90;;;;;;4997553;28;20706;-63
2024/01/23 02:50:04;;;;;;;0.00;0.00;;;0.20;99.90;;;;;;4995726;28;20517;-64
2024/01/23 02:52:31;;;;;;;0.00;0.00;;;0.20;99.90;;;;;;4993721;28;20056;-64
2024/01/23 02:54:58;;;;;;;0.40;0.40;;;0.10;99.90;;;;;;4996789;28;20057;-64
2024/01/23 02:57:25;;;;;;;0.00;0.00;;;0.10;99.90;;;;;;5000768;28;20052;-64
2024/01/23 02:59:53;;;;;;;0.05;0.05;;;0.10;99.90;;;;;;4996396;28;20022;-64
2024/01/23 03:02:22;;;;;;;4.18;1.02;;;0.20;99.90;;;;;;4995546;28;20040;-64
2024/01/23 03:04:48;;;;;;;0.00;0.00;;;0.20;99.90;;;;;;4994532;28;20057;-64
2024/01/23 03:07:15;;;;;;;1.50;0.35;;;0.20;99.90;;;;;;4996225;28;20620;-64
2024/01/23 03:09:41;;;;;;;0.10;0.10;;;0.20;99.90;;;;;;4997424;28;20041;-64
2024/01/23 03:12:23;;;;;;;0.00;0.00;;;0.20;99.90;;;;;;4992951;28;20026;-64
2024/01/23 03:14:49;;;;;;;1.40;1.30;;;0.00;99.90;;;;;;5015438;28;20030;-64
2024/01/23 03:17:16;;;;;;;0.00;0.00;;;-0.10;99.90;;;;;;4991288;28;21094;-64
2024/01/23 03:19:43;;;;;;;0.00;0.00;;;-0.10;99.90;;;;;;4999758;28;20033;-64
2024/01/23 03:22:09;;;;;;;0.00;0.00;;;-0.20;99.90;;;;;;4997630;28;20014;-64
2024/01/23 03:24:39;;;;;;;0.00;0.00;;;-0.20;99.90;;;;;;5000224;28;20041;-64
2024/01/23 03:27:06;;;;;;;0.00;0.00;;;-0.30;99.90;;;;;;5000364;28;20037;-64
2024/01/23 03:29:43;;;;;;;0.40;0.32;;;-0.30;99.90;;;;;;4999103;28;20083;-64
2024/01/23 03:32:10;;;;;;;0.60;0.60;;;-0.30;99.90;;;;;;4997058;28;20037;-64
2024/01/23 03:34:37;;;;;;;0.55;0.20;;;-0.30;99.90;;;;;;4999525;28;20501;-64
2024/01/23 03:37:03;;;;;;;2.20;0.75;;;-0.40;99.90;;;;;;5000287;28;20026;-64
2024/01/23 03:39:29;;;;;;;0.00;0.00;;;-0.40;99.90;;;;;;4998085;28;20026;-64
2024/01/23 03:41:56;;;;;;;0.00;0.00;;;-0.30;99.90;;;;;;4999247;28;20108;-64
2024/01/23 03:44:22;;;;;;;0.08;0.08;;;-0.30;99.90;;;;;;5002485;28;20022;-64
2024/01/23 03:46:49;;;;;;;0.00;0.00;;;-0.40;99.90;;;;;;5000219;28;20025;-64
2024/01/23 03:49:15;;;;;;;0.63;0.47;;;-0.40;99.90;;;;;;4996701;28;20033;-64
2024/01/23 03:51:40;;;;;;;1.80;0.67;;;-0.40;99.90;;;;;;5016073;28;20030;-64
2024/01/23 03:54:06;;;;;;;0.73;0.50;;;-0.40;99.90;;;;;;5000651;28;20659;-64
2024/01/23 03:56:32;;;;;;;0.13;0.13;;;-0.40;99.90;;;;;;5000567;28;20034;-64
2024/01/23 03:58:57;;;;;;;0.00;0.00;;;-0.30;99.90;;;;;;4996771;28;20022;-64
2024/01/23 04:01:23;;;;;;;0.00;0.00;;;-0.30;99.90;;;;;;4999616;28;20033;-64
2024/01/23 04:03:49;;;;;;;0.23;0.23;;;-0.30;99.90;;;;;;5003907;28;20095;-65
2024/01/23 04:06:14;;;;;;;0.10;0.10;;;-0.30;99.90;;;;;;5001750;28;20572;-64
2024/01/23 04:08:40;;;;;;;0.00;0.00;;;-0.30;99.90;;;;;;4999014;28;20085;-64
2024/01/23 04:11:06;;;;;;;0.10;0.10;;;-0.40;99.90;;;;;;4998520;28;20308;-64
2024/01/23 04:13:31;;;;;;;1.90;1.80;;;-0.40;99.90;;;;;;4999290;28;20029;-64
2024/01/23 04:15:57;;;;;;;0.00;0.00;;;-0.40;99.90;;;;;;4998359;28;20056;-64
2024/01/23 04:18:23;;;;;;;0.00;0.00;;;-0.50;99.90;;;;;;4998790;28;20033;-64
2024/01/23 04:20:49;;;;;;;0.43;0.37;;;-0.50;99.90;;;;;;4999879;28;20026;-64
2024/01/23 04:23:14;;;;;;;0.10;0.10;;;-0.60;99.90;;;;;;5000317;28;20068;-64
2024/01/23 04:25:40;;;;;;;0.00;0.00;;;-0.60;99.90;;;;;;4998654;28;20292;-64
2024/01/23 04:28:06;;;;;;;0.20;0.20;;;-0.60;99.90;;;;;;4999424;28;20362;-64
2024/01/23 04:30:31;;;;;;;0.00;0.00;;;-0.60;99.90;;;;;;4995461;28;20137;-64
2024/01/23 04:32:57;;;;;;;0.57;0.57;;;-0.60;99.90;;;;;;5001744;28;20058;-64
2024/01/23 04:35:23;;;;;;;0.00;0.00;;;-0.70;99.90;;;;;;4999710;28;20057;-64
2024/01/23 04:37:49;;;;;;;0.53;0.53;;;-0.70;99.90;;;;;;4996052;28;20125;-64
2024/01/23 04:40:14;;;;;;;0.53;0.53;;;-0.70;99.90;;;;;;4998954;28;20350;-64
2024/01/23 04:42:40;;;;;;;0.00;0.00;;;-0.70;99.90;;;;;;5004208;28;20030;-64
2024/01/23 04:45:08;;;;;;;0.17;0.17;;;-0.70;99.90;;;;;;4996387;28;20037;-64
2024/01/23 04:47:34;;;;;;;0.00;0.00;;;-0.70;99.90;;;;;;4999271;28;20049;-64
2024/01/23 04:50:00;;;;;;;0.00;0.00;;;-0.70;99.90;;;;;;4995557;28;20109;-64
2024/01/23 04:52:26;;;;;;;0.10;0.10;;;-0.70;99.90;;;;;;4997868;28;20385;-61
2024/01/23 04:54:52;;;;;;;0.00;0.00;;;-0.70;99.90;;;;;;4999255;28;20033;-61
2024/01/23 04:57:18;;;;;;;0.67;0.47;;;-0.70;99.90;;;;;;4999061;28;20017;-61
2024/01/23 04:59:44;;;;;;;0.00;0.00;;;-0.60;99.90;;;;;;4993968;28;20381;-62
2024/01/23 05:02:10;;;;;;;0.03;0.03;;;-0.50;99.90;;;;;;4998432;28;20076;-62
2024/01/23 05:04:36;;;;;;;0.00;0.00;;;-0.40;99.90;;;;;;5000524;28;20018;-63
2024/01/23 05:07:01;;;;;;;0.00;0.00;;;-0.30;99.90;;;;;;4998714;28;20034;-61
2024/01/23 05:09:31;;;;;;;0.00;0.00;;;-0.20;99.90;;;;;;4999384;28;20029;-61
2024/01/23 05:11:57;;;;;;;0.28;0.25;;;-0.20;99.90;;;;;;4997375;28;20075;-62
2024/01/23 05:14:23;;;;;;;1.25;1.00;;;-0.20;99.90;;;;;;5002227;28;20062;-62
2024/01/23 05:16:49;;;;;;;0.00;0.00;;;-0.20;99.90;;;;;;4998726;28;20504;-61
2024/01/23 05:19:14;;;;;;;0.00;0.00;;;-0.20;99.90;;;;;;4994824;28;20050;-61
2024/01/23 05:21:40;;;;;;;0.00;0.00;;;-0.10;99.90;;;;;;4997584;28;20054;-61
2024/01/23 05:24:06;;;;;;;0.00;0.00;;;0.00;99.90;;;;;;4999166;28;20050;-62
2024/01/23 05:26:32;;;;;;;0.00;0.00;;;0.10;99.90;;;;;;4997701;28;20030;-62
2024/01/23 05:28:57;;;;;;;0.00;0.00;;;0.20;99.90;;;;;;4998643;28;20076;-63
2024/01/23 05:31:23;;;;;;;0.00;0.00;;;0.30;99.90;;;;;;4998489;28;20101;-63
2024/01/23 05:33:48;;;;;;;0.00;0.00;;;0.70;99.90;;;;;;4994522;28;20017;-61
2024/01/23 05:36:14;;;;;;;0.00;0.00;;;1.10;99.90;;;;;;4998329;28;20444;-61
2024/01/23 05:38:40;;;;;;;0.00;0.00;;;1.60;99.90;;;;;;4995196;28;20057;-61
2024/01/23 05:41:05;;;;;;;0.00;0.00;;;2.00;99.90;;;;;;4997563;28;20025;-61
2024/01/23 05:43:31;;;;;;;0.00;0.00;;;2.50;99.90;;;;;;4996613;28;20027;-61
2024/01/23 05:45:57;;;;;;;0.00;0.00;;;2.80;99.90;;;;;;4998566;28;20045;-62
2024/01/23 05:48:22;;;;;;;0.00;0.00;;;3.10;99.90;;;;;;4997599;28;20096;-62
2024/01/23 05:50:48;;;;;;;0.00;0.00;;;3.40;99.90;;;;;;4994086;28;20277;-62
2024/01/23 05:53:14;;;;;;;0.00;0.00;;;3.50;99.90;;;;;;4998391;28;20022;-62
2024/01/23 05:55:39;;;;;;;0.00;0.00;;;3.60;99.90;;;;;;4997793;28;20092;-63
2024/01/23 05:58:09;;;;;;;0.00;0.00;;;3.80;99.90;;;;;;5013441;28;20106;-61
2024/01/23 06:00:36;;;;;;;0.00;0.00;;;3.90;99.90;;;;;;4998944;28;20117;-61
2024/01/23 06:03:02;;;;;;;0.00;0.00;;;4.00;99.90;;;;;;4994149;28;20030;-62
2024/01/23 06:05:27;;;;;;;0.00;0.00;;;4.10;99.90;;;;;;5002703;28;20120;-61
2024/01/23 06:07:53;;;;;;;0.00;0.00;;;4.20;99.90;;;;;;4998262;28;20505;-62
2024/01/23 06:10:19;;;;;;;0.00;0.00;;;4.40;99.90;;;;;;4996891;28;20021;-62
2024/01/23 06:12:45;;;;;;;0.00;0.00;;;4.50;99.90;;;;;;4994408;28;20625;-62
2024/01/23 06:15:11;;;;;;;0.00;0.00;;;4.60;99.90;;;;;;4999636;28;20022;-63
2024/01/23 06:17:37;;;;;;;0.00;0.00;;;4.60;99.90;;;;;;4997658;28;20026;-61
2024/01/23 06:20:07;;;;;;;0.00;0.00;;;4.60;99.90;;;;;;4999395;28;20036;-61
2024/01/23 06:22:36;;;;;;;0.00;0.00;;;4.60;99.90;;;;;;4997789;28;20091;-60
2024/01/23 06:25:07;;;;;;;0.00;0.00;;;4.50;99.90;;;;;;4998823;28;20045;-60
2024/01/23 06:27:35;;;;;;;0.00;0.00;;;4.70;99.90;;;;;;4995976;28;20026;-61
2024/01/23 06:30:01;;;;;;;0.00;0.00;;;4.70;99.90;;;;;;4994489;28;20144;-64
2024/01/23 06:32:27;;;;;;;0.00;0.00;;;4.60;99.90;;;;;;5000992;28;20156;-61
2024/01/23 06:34:52;;;;;;;0.00;0.00;;;4.60;99.90;;;;;;4997374;28;20034;-63
2024/01/23 06:37:19;;;;;;;0.00;0.00;;;4.70;99.90;;;;;;4997222;28;20029;-61
2024/01/23 06:39:45;;;;;;;;;;;4.60;99.90;;;;;;4994773;28;20049;-61
2024/01/23 06:42:11;;;;;;;0.00;0.00;;;4.60;99.90;;;;;;4997461;28;20010;-63
2024/01/23 06:44:37;;;;;;;0.00;0.00;;;4.50;99.90;;;;;;4994241;28;20032;-61
2024/01/23 06:47:03;;;;;;;0.17;0.17;;;4.60;99.90;;;;;;5024994;28;20091;-60
2024/01/23 06:49:29;;;;;;;0.00;0.00;;;4.70;99.90;;;;;;4997036;28;20049;-61
2024/01/23 06:51:55;;;;;;;0.00;0.00;;;4.70;99.90;;;;;;4997301;28;20021;-61
2024/01/23 06:54:20;;;;;;;0.00;0.00;;;4.70;99.90;;;;;;4997685;28;20129;-61
2024/01/23 06:56:46;;;;;;;0.00;0.00;;;4.70;99.90;;;;;;4997081;28;20029;-62
2024/01/23 06:59:12;;;;;;;0.00;0.00;;;4.90;99.90;;;;;;5007861;28;20018;-62
2024/01/23 07:01:40;;;;;;;0.00;0.00;;;5.20;99.90;;;;;;4997953;28;20030;-62
2024/01/23 07:04:07;;;;;;;0.00;0.00;;;5.60;99.90;;;;;;4993320;28;20087;-62
2024/01/23 07:06:32;;;;;;;0.00;0.00;;;6.20;99.90;;;;;;4998995;28;20021;-62
2024/01/23 07:08:58;;;;;;;0.00;0.00;;;7.20;99.90;;;;;;4997881;28;20074;-61
2024/01/23 07:11:24;;;;;;;0.00;0.00;;;8.40;99.90;;;;;;4996795;28;20354;-63
2024/01/23 07:13:53;;;;;;;0.00;0.00;;;9.30;99.90;;;;;;4996229;28;20089;-63
2024/01/23 07:16:19;;;;;;;0.00;0.00;;;10.10;99.90;;;;;;4996043;28;20101;-64
2024/01/23 07:18:44;;;;;;;0.00;0.00;;;10.50;99.90;;;;;;4992912;28;20049;-63
2024/01/23 07:21:10;;;;;;;0.00;0.00;;;10.70;99.90;;;;;;4997766;28;20061;-64
2024/01/23 07:23:36;;;;;;;0.00;0.00;;;11.00;99.90;;;;;;4993678;28;20625;-64
2024/01/23 07:26:02;;;;;;;0.00;0.00;;;11.80;99.90;;;;;;4995804;28;20026;-64
2024/01/23 07:28:29;;;;;;;0.00;0.00;;;12.80;99.90;;;;;;4995861;28;20467;-64
2024/01/23 07:30:54;;;;;;;0.03;0.03;;;13.50;99.90;;;;;;4990755;28;20022;-64
2024/01/23 07:33:20;;;;;;;0.00;0.00;;;13.90;99.90;;;;;;4996805;28;20076;-64
2024/01/23 07:35:46;;;;;;;0.00;0.00;;;13.70;99.90;;;;;;4997922;28;20754;-64
2024/01/23 07:38:11;;;;;;;0.00;0.00;;;13.70;99.90;;;;;;4997050;28;20452;-64
2024/01/23 07:40:41;;;;;;;0.00;0.00;;;13.50;99.90;;;;;;4996916;28;20026;-64
2024/01/23 07:43:07;;;;;;;0.10;0.10;;;13.00;99.90;;;;;;4997533;28;20268;-64
2024/01/23 07:45:33;;;;;;;0.00;0.00;;;12.20;99.90;;;;;;4996894;28;20034;-64
2024/01/23 07:47:59;;;;;;;0.00;0.00;;;11.40;99.90;;;;;;4997330;28;20637;-64
2024/01/23 07:50:27;;;;;;;0.00;0.00;;;10.70;99.90;;;;;;4996556;28;20051;-64
2024/01/23 07:52:53;;;;;;;0.00;0.00;;;10.20;99.90;;;;;;4990092;28;20153;-64
2024/01/23 07:55:19;;;;;;;0.00;0.00;;;9.90;99.90;;;;;;4996461;28;20029;-63
2024/01/23 07:57:44;;;;;;;0.00;0.00;;;9.80;99.90;;;;;;4996885;28;20733;-64
2024/01/23 08:00:11;;;;;;;0.00;0.00;;;9.60;99.90;;;;;;4996240;28;20272;-63
2024/01/23 08:02:37;;;;;;;0.00;0.00;;;9.50;99.90;;;;;;4991884;28;20541;-63
2024/01/23 08:05:02;;;;;;;0.00;0.00;;;9.30;99.90;;;;;;5000935;28;20052;-63
2024/01/23 08:07:28;;;;;;;0.00;0.00;;;9.00;99.90;;;;;;4999005;28;20029;-63
2024/01/23 08:09:54;;;;;;;0.00;0.00;;;8.90;99.90;;;;;;4999894;28;20033;-64
2024/01/23 08:12:20;;;;;;;0.00;0.00;;;9.10;99.90;;;;;;5001516;28;20026;-63
2024/01/23 08:14:46;;;;;;;0.00;0.00;;;9.30;99.90;;;;;;4996029;28;20026;-64
2024/01/23 08:17:12;;;;;;;0.00;0.00;;;9.50;99.90;;;;;;5001852;28;20100;-64
2024/01/23 08:19:39;;;;;;;0.00;0.00;;;9.70;99.90;;;;;;4995438;28;20021;-64
2024/01/23 08:22:06;;;;;;;0.00;0.00;;;9.80;99.90;;;;;;5002123;28;20113;-62
2024/01/23 08:24:31;;;;;;;;;;;10.00;99.90;;;;;;5001065;28;20052;-63
2024/01/23 08:26:58;;;;;;;0.00;0.00;;;10.20;99.90;;;;;;5000640;28;19914;-63
2024/01/23 08:29:23;;;;;;;0.00;0.00;;;10.80;99.90;;;;;;4995667;28;20014;-61
2024/01/23 08:31:49;;;;;;;0.00;0.00;;;12.20;99.90;;;;;;5000217;28;20715;-62
2024/01/23 08:34:15;;;;;;;0.00;0.00;;;13.60;99.90;;;;;;5000045;28;20021;-62
2024/01/23 08:36:41;;;;;;;0.00;0.00;;;13.90;99.90;;;;;;4996136;28;20030;-62
2024/01/23 08:39:07;;;;;;;0.00;0.00;;;13.30;99.90;;;;;;5001749;28;20548;-63
2024/01/23 08:41:33;;;;;;;0.00;0.00;;;13.00;99.90;;;;;;5001358;28;20049;-62
2024/01/23 08:43:59;;;;;;;0.30;0.08;;;12.80;99.90;;;;;;5001084;28;20454;-63
2024/01/23 08:46:25;;;;;;;0.00;0.00;;;13.60;99.90;;;;;;4999383;28;20139;-62
2024/01/23 08:48:51;;;;;;;0.00;0.00;;;15.10;99.90;;;;;;4996053;28;20104;-61
2024/01/23 08:51:17;;;;;;;0.00;0.00;;;15.80;96.40;;;;;;5000190;28;20057;-63
2024/01/23 08:53:43;;;;;;;0.00;0.00;;;14.40;97.50;;;;;;4996148;28;20049;-61
2024/01/23 08:56:08;;;;;;;0.00;0.00;;;15.30;98.10;;;;;;5001461;28;20045;-64
2024/01/23 08:58:34;;;;;;;0.00;0.00;;;17.10;94.90;;;;;;4999516;28;20029;-64
2024/01/23 09:01:00;;;;;;;0.00;0.00;;;18.70;92.00;;;;;;4998605;28;20061;-62
2024/01/23 09:03:26;;;;;;;0.00;0.00;;;19.90;88.50;;;;;;4998956;28;20084;-62
2024/01/23 09:05:51;;;;;;;0.00;0.00;;;20.90;84.90;;;;;;5001917;28;20422;-62
2024/01/23 09:08:17;;;;;;;0.00;0.00;;;22.00;79.00;;;;;;4995101;28;20650;-62
2024/01/23 09:10:43;;;;;;;0.00;0.00;;;22.60;75.20;;;;;;4999030;28;20060;-63
2024/01/23 09:13:08;;;;;;;0.00;0.00;;;23.70;72.00;;;;;;4994899;28;20385;-62
2024/01/23 09:15:35;;;;;;;0.00;0.00;;;24.50;69.00;;;;;;4998037;28;20033;-62
2024/01/23 09:18:01;;;;;;;0.00;0.00;;;24.70;66.30;;;;;;4999845;28;20010;-62
2024/01/23 09:20:26;;;;;;;0.00;0.00;;;23.90;66.30;;;;;;4994749;28;20029;-62
2024/01/23 09:22:52;;;;;;;0.00;0.00;;;24.10;65.00;;;;;;4999390;28;20454;-61
2024/01/23 09:25:18;;;;;;;0.00;0.00;;;24.10;64.80;;;;;;4999293;28;20038;-62
2024/01/23 09:27:44;;;;;;;0.00;0.00;;;24.30;64.90;;;;;;4999684;28;20037;-62
2024/01/23 09:30:10;;;;;;;0.00;0.00;;;24.90;63.00;;;;;;5014801;28;20473;-62
2024/01/23 09:32:36;;;;;;;0.00;0.00;;;24.50;64.00;;;;;;4998804;28;20691;-61
2024/01/23 09:35:02;;;;;;;0.00;0.00;;;24.90;63.10;;;;;;5000039;28;20025;-61
2024/01/23 09:37:28;;;;;;;0.00;0.00;;;24.70;62.30;;;;;;4998278;28;20112;-63
2024/01/23 09:39:55;;;;;;;0.00;0.00;;;25.30;62.60;;;;;;4998918;28;20700;-62
2024/01/23 09:42:25;;;;;;;0.00;0.00;;;25.00;61.00;;;;;;4995701;28;20026;-61
2024/01/23 09:44:54;;;;;;;0.00;0.00;;;24.20;62.00;;;;;;4999021;28;20021;-62
2024/01/23 09:47:20;;;;;;;0.00;0.00;;;24.60;62.70;;;;;;4997879;28;20108;-61
2024/01/23 09:49:48;;;;;;;0.00;0.00;;;24.70;62.40;;;;;;4999886;28;20424;-61
2024/01/23 09:52:15;;;;;;;0.00;0.00;;;24.90;61.20;;;;;;5009095;28;20105;-61
2024/01/23 09:54:41;;;;;;;0.00;0.00;;;23.60;61.40;;;;;;4998361;28;20440;-65
2024/01/23 09:57:07;;;;;;;0.00;0.00;;;22.30;62.90;;;;;;4995949;28;20021;-62
2024/01/23 09:59:33;;;;;;;;;;;21.10;64.70;;;;;;4998978;28;20478;-64
2024/01/23 10:01:59;;;;;;;0.00;0.00;;;19.30;66.90;;;;;;4994225;28;19995;-62
2024/01/23 10:04:28;;;;;;;0.00;0.00;;;17.50;69.90;;;;;;4999634;28;20029;-62
2024/01/23 10:06:54;;;;;;;0.00;0.00;;;16.50;73.30;;;;;;4994281;28;20033;-61
2024/01/23 10:09:20;;;;;;;0.00;0.00;;;15.60;75.90;;;;;;4997572;28;20068;-62
2024/01/23 10:11:45;;;;;;;0.00;0.00;;;15.70;77.50;;;;;;4994197;28;20108;-62
2024/01/23 10:14:14;;;;;;;0.00;0.00;;;16.80;76.30;;;;;;4997933;28;20049;-63
2024/01/23 10:16:40;;;;;;;0.00;0.00;;;17.20;74.80;;;;;;4992796;28;20014;-62
2024/01/23 10:19:10;;;;;;;0.00;0.00;;;17.60;74.30;;;;;;5001408;28;20024;-62
2024/01/23 10:21:36;;;;;;;0.00;0.00;;;19.10;72.80;;;;;;5013229;28;20111;-64
2024/01/23 10:24:02;;;;;;;0.00;0.00;;;20.80;69.30;;;;;;4997135;28;20434;-61
2024/01/23 10:26:28;;;;;;;0.00;0.00;;;21.20;67.60;;;;;;4997680;28;20532;-62
2024/01/23 10:28:54;;;;;;;0.00;0.00;;;21.60;67.30;;;;;;4994783;28;20346;-62
2024/01/23 10:31:19;;;;;;;0.00;0.00;;;22.10;66.40;;;;;;5001553;28;20389;-62
2024/01/23 10:33:45;;;;;;;0.00;0.00;;;23.40;64.80;;;;;;4994985;28;20026;-61
2024/01/23 10:36:12;;;;;;;0.00;0.00;;;24.10;63.20;;;;;;4997307;28;20030;-63
2024/01/23 10:38:38;;;;;;;0.00;0.00;;;24.30;62.30;;;;;;4998301;28;20029;-62
2024/01/23 10:41:05;;;;;;;0.00;0.00;;;24.10;62.10;;;;;;4998964;28;20025;-63
2024/01/23 10:43:32;;;;;;;0.00;0.00;;;24.40;61.60;;;;;;4994354;28;20030;-62
2024/01/23 10:45:58;;;;;;;0.00;0.00;;;24.60;60.80;;;;;;4994871;28;20030;-61
2024/01/23 10:48:25;;;;;;;;;;;23.30;61.60;;;;;;4993453;28;20118;-62
2024/01/23 10:50:54;;;;;;;0.00;0.00;;;23.40;62.80;;;;;;4995198;28;20245;-63
2024/01/23 10:53:24;;;;;;;0.00;0.00;;;23.30;61.90;;;;;;4992366;28;20144;-62
2024/01/23 10:55:53;;;;;;;0.00;0.00;;;23.40;62.10;;;;;;4997463;28;20037;-61
2024/01/23 10:58:28;;;;;;;0.00;0.00;;;20.60;64.30;;;;;;4991925;28;20045;-62
2024/01/23 11:00:56;;;;;;;0.10;0.10;;;19.00;68.10;;;;;;4995957;28;20033;-62
2024/01/23 11:03:23;;;;;;;0.00;0.00;;;18.30;69.40;;;;;;4997802;28;20033;-63
2024/01/23 11:06:12;;;;;;;0.00;0.00;;;16.80;71.60;;;;;;4999288;28;20037;-62
2024/01/23 11:08:45;;;;;;;0.00;0.00;;;16.20;74.50;;;;;;5012443;28;20092;-62
2024/01/23 11:11:22;;;;;;;0.00;0.00;;;16.60;74.50;;;;;;4995259;28;20018;-63
2024/01/23 11:13:57;;;;;;;0.00;0.00;;;17.30;72.20;;;;;;5010534;28;20022;-61
2024/01/23 11:16:23;;;;;;;0.00;0.00;;;15.90;73.90;;;;;;4993420;28;20037;-62
2024/01/23 11:18:53;;;;;;;0.00;0.00;;;14.50;77.10;;;;;;4991097;28;20026;-63
2024/01/23 11:21:22;;;;;;;0.00;0.00;;;13.40;80.40;;;;;;4994498;28;20030;-61
2024/01/23 11:23:58;;;;;;;0.00;0.00;;;12.50;83.70;;;;;;4993614;28;20026;-63
2024/01/23 11:26:26;;;;;;;0.00;0.00;;;11.70;87.10;;;;;;4990594;28;20117;-62
2024/01/23 11:29:07;;;;;;;0.00;0.00;;;11.20;90.30;;;;;;4995633;28;20065;-62
2024/01/23 11:31:40;;;;;;;0.00;0.00;;;10.80;92.80;;;;;;4990236;28;20018;-62
2024/01/23 11:34:24;;;;;;;0.00;0.00;;;10.30;96.00;;;;;;4998843;28;20022;-62
2024/01/23 11:36:49;;;;;;;0.00;0.00;;;10.00;98.80;;;;;;4996248;28;20022;-61
2024/01/23 11:39:16;;;;;;;0.00;0.00;;;9.70;99.90;;;;;;4997149;28;20690;-62
2024/01/23 11:41:48;;;;;;;0.00;0.00;;;9.50;99.90;;;;;;5002848;28;20876;-63
2024/01/23 11:44:17;;;;;;;0.00;0.00;;;9.30;99.90;;;;;;4997108;28;20095;-62
2024/01/23 11:46:47;;;;;;;0.00;0.00;;;9.00;99.90;;;;;;4999507;28;20036;-63
2024/01/23 11:49:13;;;;;;;0.00;0.00;;;8.80;99.90;;;;;;4997083;28;20514;-62
2024/01/23 11:51:39;;;;;;;0.00;0.00;;;8.70;99.90;;;;;;5012591;28;20033;-65
2024/01/23 11:54:15;;;;;;;0.00;0.00;;;8.60;99.90;;;;;;5001059;28;20034;-64
2024/01/23 11:56:41;;;;;;;0.00;0.00;;;8.30;99.90;;;;;;5000367;28;20351;-64
2024/01/23 11:59:07;;;;;;;0.00;0.00;;;8.10;99.90;;;;;;5003672;28;20046;-64
2024/01/23 12:01:35;;;;;;;0.00;0.00;;;7.80;99.90;;;;;;4998862;28;20033;-64
2024/01/23 12:04:01;;;;;;;0.00;0.00;;;7.50;99.90;;;;;;4996194;28;20059;-64
2024/01/23 12:06:29;;;;;;;0.00;0.00;;;7.30;99.90;;;;;;4998427;28;20488;-64
2024/01/23 12:08:54;;;;;;;0.00;0.00;;;7.10;99.90;;;;;;5001635;28;20022;-64
2024/01/23 12:11:20;;;;;;;0.00;0.00;;;7.00;99.90;;;;;;4995502;28;20021;-64
2024/01/23 12:13:50;;;;;;;0.00;0.00;;;7.00;99.90;;;;;;4997348;28;20430;-64
2024/01/23 12:16:17;;;;;;;0.00;0.00;;;7.10;99.90;;;;;;4996867;28;20034;-64
2024/01/23 12:18:44;;;;;;;0.00;0.00;;;7.20;99.90;;;;;;4998487;28;20109;-63
2024/01/23 12:21:11;;;;;;;0.00;0.00;;;7.20;99.90;;;;;;4999384;28;20489;-64
2024/01/23 12:23:37;;;;;;;0.00;0.00;;;7.20;99.90;;;;;;4999400;28;20037;-64
2024/01/23 12:26:04;;;;;;;0.00;0.00;;;7.10;99.90;;;;;;4993917;28;20022;-64
2024/01/23 12:28:32;;;;;;;0.00;0.00;;;7.10;99.90;;;;;;4998620;28;20049;-64
2024/01/23 12:30:58;;;;;;;0.00;0.00;;;7.10;99.90;;;;;;4993793;28;20019;-64
2024/01/23 12:33:25;;;;;;;0.00;0.00;;;7.30;99.90;;;;;;4997269;28;20030;-66
2024/01/23 12:35:52;;;;;;;0.00;0.00;;;7.60;99.90;;;;;;4994022;28;20132;-67
2024/01/23 12:38:19;;;;;;;0.00;0.00;;;7.90;99.90;;;;;;4995120;28;20041;-63
2024/01/23 12:40:45;;;;;;;0.00;0.00;;;8.00;99.90;;;;;;4995894;28;20038;-64
2024/01/23 12:43:12;;;;;;;0.00;0.00;;;8.20;99.90;;;;;;4999839;28;20044;-64
2024/01/23 12:45:38;;;;;;;0.00;0.00;;;8.10;99.90;;;;;;5002366;28;20033;-64
2024/01/23 12:48:05;;;;;;;0.00;0.00;;;7.80;99.90;;;;;;4994382;28;20029;-64
2024/01/23 12:50:33;;;;;;;0.00;0.00;;;7.60;99.90;;;;;;5002993;28;20033;-64